createdAt,value
2019-04-14T00:00:49.571Z,2.70
2019-04-14T00:03:34.798Z,2.70
2019-04-14T00:06:04.840Z,2.80
2019-04-14T00:08:32.713Z,2.80
2019-04-14T00:11:00.081Z,2.90
2019-04-14T00:13:28.454Z,2.90
2019-04-14T00:15:56.634Z,2.90
2019-04-14T00:18:25.119Z,2.90
2019-04-14T00:20:53.426Z,2.90
2019-04-14T00:23:21.544Z,2.90
2019-04-14T00:25:50.038Z,3.00
2019-04-14T00:28:18.433Z,3.10
2019-04-14T00:30:46.915Z,3.00
2019-04-14T00:33:15.250Z,3.00
2019-04-14T00:35:55.946Z,3.00
2019-04-14T00:38:30.319Z,3.00
2019-04-14T00:41:03.432Z,3.10
2019-04-14T00:43:45.835Z,3.10
2019-04-14T00:46:17.593Z,3.10
2019-04-14T00:48:45.554Z,3.10
2019-04-14T00:51:13.396Z,3.10
2019-04-14T00:53:40.643Z,3.10
2019-04-14T00:56:08.355Z,3.10
2019-04-14T00:58:36.599Z,3.10
2019-04-14T01:01:04.881Z,3.20
2019-04-14T01:03:33.043Z,3.20
2019-04-14T01:06:01.192Z,3.30
2019-04-14T01:08:29.253Z,3.30
2019-04-14T01:10:56.369Z,3.40
2019-04-14T01:13:24.600Z,3.40
2019-04-14T01:16:00.540Z,3.50
2019-04-14T01:18:21.253Z,3.50
2019-04-14T01:20:49.231Z,3.60
2019-04-14T01:23:17.157Z,3.70
2019-04-14T01:25:45.325Z,3.80
2019-04-14T01:28:13.634Z,3.80
2019-04-14T01:30:41.558Z,3.90
2019-04-14T01:33:09.646Z,4.00
2019-04-14T01:35:37.789Z,4.10
2019-04-14T01:38:05.885Z,4.20
2019-04-14T01:40:33.793Z,4.20
2019-04-14T01:43:01.722Z,4.30
2019-04-14T01:45:29.580Z,4.40
2019-04-14T01:47:57.549Z,4.40
2019-04-14T01:50:34.494Z,4.50
2019-04-14T01:53:13.913Z,4.50
2019-04-14T01:55:50.528Z,4.60
2019-04-14T01:58:25.237Z,4.60
2019-04-14T02:01:08.452Z,4.60
2019-04-14T02:03:36.629Z,4.70
2019-04-14T02:06:04.819Z,4.70
2019-04-14T02:08:32.896Z,4.70
2019-04-14T02:11:00.917Z,4.70
2019-04-14T02:13:28.934Z,4.70
2019-04-14T02:15:57.316Z,4.70
2019-04-14T02:18:25.111Z,4.80
2019-04-14T02:20:53.608Z,4.80
2019-04-14T02:23:21.498Z,4.80
2019-04-14T02:25:49.429Z,4.80
2019-04-14T02:28:17.778Z,4.80
2019-04-14T02:30:55.936Z,4.80
2019-04-14T02:33:44.278Z,4.80
2019-04-14T02:36:14.216Z,4.80
2019-04-14T02:38:49.167Z,4.80
2019-04-14T02:41:13.411Z,4.80
2019-04-14T02:43:38.100Z,4.90
2019-04-14T02:46:02.464Z,4.80
2019-04-14T02:51:06.118Z,4.80
2019-04-14T02:53:42.136Z,4.80
2019-04-14T02:56:11.602Z,4.90
2019-04-14T02:58:42.013Z,4.90
2019-04-14T03:03:30.582Z,4.80
2019-04-14T03:06:01.246Z,4.70
2019-04-14T03:08:36.105Z,4.70
2019-04-14T03:10:55.993Z,4.70
2019-04-14T03:15:56.887Z,4.70
2019-04-14T03:18:44.670Z,4.60
2019-04-14T03:21:29.954Z,4.60
2019-04-14T03:24:03.081Z,4.70
2019-04-14T03:26:46.331Z,4.60
2019-04-14T03:29:21.718Z,4.60
2019-04-14T03:32:02.468Z,4.60
2019-04-14T03:39:17.863Z,4.50
2019-04-14T03:41:45.166Z,4.50
2019-04-14T03:44:19.013Z,4.50
2019-04-14T03:46:41.574Z,4.40
2019-04-14T03:51:48.287Z,4.30
2019-04-14T03:54:03.748Z,4.30
2019-04-14T03:56:44.309Z,4.30
2019-04-14T03:59:12.724Z,4.20
2019-04-14T04:01:39.945Z,4.20
2019-04-14T04:04:07.512Z,4.20
2019-04-14T04:06:35.664Z,4.10
2019-04-14T04:09:04.451Z,4.10
2019-04-14T04:11:32.249Z,4.10
2019-04-14T04:14:00.683Z,4.10
2019-04-14T04:17:04.016Z,4.10
2019-04-14T04:19:51.402Z,4.00
2019-04-14T04:22:54.350Z,4.00
2019-04-14T04:25:47.068Z,4.00
2019-04-14T04:28:34.199Z,3.90
2019-04-14T04:31:24.261Z,3.90
2019-04-14T04:33:59.711Z,3.90
2019-04-14T04:36:48.888Z,4.00
2019-04-14T04:39:34.880Z,3.80
2019-04-14T04:42:01.055Z,3.80
2019-04-14T04:44:29.100Z,3.80
2019-04-14T04:46:56.963Z,3.80
2019-04-14T04:49:26.539Z,3.70
2019-04-14T04:51:53.118Z,3.80
2019-04-14T04:54:21.061Z,3.70
2019-04-14T04:56:49.185Z,3.70
2019-04-14T04:59:17.085Z,3.70
2019-04-14T05:01:45.138Z,3.70
2019-04-14T05:04:13.269Z,3.70
2019-04-14T05:07:01.897Z,3.70
2019-04-14T05:09:51.786Z,3.70
2019-04-14T05:12:47.978Z,3.80
2019-04-14T05:15:34.082Z,3.80
2019-04-14T05:18:01.227Z,3.80
2019-04-14T05:20:29.203Z,3.80
2019-04-14T05:22:57.244Z,3.80
2019-04-14T05:25:25.347Z,3.70
2019-04-14T05:27:53.797Z,3.70
2019-04-14T05:30:21.879Z,3.70
2019-04-14T05:32:50.169Z,3.70
2019-04-14T05:35:18.329Z,3.80
2019-04-14T05:37:46.479Z,3.80
2019-04-14T05:40:14.534Z,3.80
2019-04-14T05:42:42.746Z,3.80
2019-04-14T05:45:11.204Z,3.80
2019-04-14T05:47:39.281Z,3.80
2019-04-14T05:50:07.356Z,3.80
2019-04-14T05:52:34.550Z,3.90
2019-04-14T05:55:02.482Z,3.90
2019-04-14T05:57:30.596Z,3.90
2019-04-14T05:59:57.616Z,3.80
2019-04-14T06:02:27.457Z,3.80
2019-04-14T06:04:55.202Z,3.70
2019-04-14T06:07:22.227Z,3.70
2019-04-14T06:09:49.352Z,3.60
2019-04-14T06:12:16.672Z,3.60
2019-04-14T06:14:43.767Z,3.60
2019-04-14T06:17:11.020Z,3.60
2019-04-14T06:19:40.633Z,3.80
2019-04-14T06:22:07.544Z,3.60
2019-04-14T06:24:34.659Z,3.60
2019-04-14T06:27:01.928Z,3.60
2019-04-14T06:29:28.931Z,3.70
2019-04-14T06:32:08.950Z,3.70
2019-04-14T06:34:45.858Z,3.70
2019-04-14T06:37:50.991Z,3.80
2019-04-14T06:40:18.982Z,3.70
2019-04-14T06:42:46.114Z,3.80
2019-04-14T06:45:13.754Z,3.80
2019-04-14T06:47:40.872Z,3.80
2019-04-14T06:50:08.090Z,3.80
2019-04-14T06:52:35.115Z,3.80
2019-04-14T06:55:02.278Z,3.70
2019-04-14T06:57:29.424Z,3.70
2019-04-14T06:59:56.459Z,3.70
2019-04-14T07:02:23.482Z,3.70
2019-04-14T07:04:50.568Z,3.70
2019-04-14T07:07:17.594Z,3.70
2019-04-14T07:09:44.687Z,3.70
2019-04-14T07:12:11.893Z,3.70
2019-04-14T07:14:39.053Z,3.70
2019-04-14T07:17:06.166Z,3.70
2019-04-14T07:19:33.204Z,3.80
2019-04-14T07:22:00.456Z,3.90
2019-04-14T07:24:27.607Z,3.90
2019-04-14T07:26:54.660Z,3.90
2019-04-14T07:29:23.992Z,3.80
2019-04-14T07:32:10.718Z,3.80
2019-04-14T07:35:09.775Z,3.80
2019-04-14T07:37:58.834Z,3.70
2019-04-14T07:40:45.303Z,3.70
2019-04-14T07:43:30.956Z,3.80
2019-04-14T07:46:08.445Z,3.70
2019-04-14T07:48:43.791Z,3.80
2019-04-14T07:51:24.251Z,3.80
2019-04-14T07:53:58.439Z,3.80
2019-04-14T07:56:45.098Z,3.80
2019-04-14T07:59:17.611Z,3.80
2019-04-14T08:01:57.232Z,3.80
2019-04-14T08:04:32.594Z,3.90
2019-04-14T08:06:59.931Z,3.90
2019-04-14T08:09:27.198Z,4.00
2019-04-14T08:11:54.382Z,4.00
2019-04-14T08:14:21.446Z,4.00
2019-04-14T08:16:48.472Z,4.10
2019-04-14T08:19:15.618Z,4.10
2019-04-14T08:21:42.839Z,4.10
2019-04-14T08:24:09.971Z,4.10
2019-04-14T08:26:37.080Z,4.10
2019-04-14T08:29:04.272Z,4.10
2019-04-14T08:31:31.389Z,4.10
2019-04-14T08:33:58.520Z,4.10
2019-04-14T08:36:25.948Z,4.10
2019-04-14T08:38:53.187Z,4.20
2019-04-14T08:41:20.435Z,4.20
2019-04-14T08:43:59.682Z,4.20
2019-04-14T08:46:50.461Z,4.20
2019-04-14T08:49:24.336Z,4.30
2019-04-14T08:52:03.193Z,4.30
2019-04-14T08:54:48.528Z,4.30
2019-04-14T08:57:30.941Z,4.30
2019-04-14T09:00:15.931Z,4.40
2019-04-14T09:03:06.403Z,4.40
2019-04-14T09:05:53.255Z,4.40
2019-04-14T09:08:28.324Z,4.50
2019-04-14T09:10:57.902Z,4.50
2019-04-14T09:13:25.091Z,4.50
2019-04-14T09:15:52.357Z,4.50
2019-04-14T09:18:19.581Z,4.50
2019-04-14T09:20:52.388Z,4.60
2019-04-14T09:23:15.563Z,4.70
2019-04-14T09:25:42.600Z,4.80
2019-04-14T09:28:09.865Z,4.80
2019-04-14T09:30:36.947Z,4.80
2019-04-14T09:33:04.530Z,4.80
2019-04-14T09:35:31.598Z,4.80
2019-04-14T09:37:58.599Z,4.90
2019-04-14T09:40:26.005Z,4.90
2019-04-14T09:42:53.110Z,4.90
2019-04-14T09:45:20.336Z,4.90
2019-04-14T09:47:47.473Z,5.00
2019-04-14T09:50:14.682Z,5.00
2019-04-14T09:52:41.811Z,5.10
2019-04-14T09:55:09.011Z,5.20
2019-04-14T09:57:36.132Z,5.20
2019-04-14T10:00:04.796Z,5.30
2019-04-14T10:02:31.933Z,5.40
2019-04-14T10:04:59.139Z,5.40
2019-04-14T10:07:26.375Z,5.40
2019-04-14T10:09:53.562Z,5.50
2019-04-14T10:12:20.718Z,5.50
2019-04-14T10:14:47.835Z,5.60
2019-04-14T10:17:15.224Z,5.60
2019-04-14T10:19:42.272Z,5.60
2019-04-14T10:22:09.607Z,5.60
2019-04-14T10:24:36.771Z,5.60
2019-04-14T10:27:04.000Z,5.70
2019-04-14T10:29:31.155Z,5.80
2019-04-14T10:31:58.342Z,5.80
2019-04-14T10:34:25.472Z,5.80
2019-04-14T10:36:52.579Z,5.90
2019-04-14T10:39:19.791Z,5.90
2019-04-14T10:41:47.044Z,5.90
2019-04-14T10:44:14.272Z,6.00
2019-04-14T10:46:41.391Z,6.00
2019-04-14T10:49:08.650Z,6.10
2019-04-14T10:51:35.793Z,6.20
2019-04-14T10:54:02.983Z,6.20
2019-04-14T10:56:29.987Z,6.30
2019-04-14T10:58:57.186Z,6.30
2019-04-14T11:01:24.404Z,6.50
2019-04-14T11:03:51.426Z,6.60
2019-04-14T11:06:24.691Z,6.70
2019-04-14T11:08:51.915Z,6.90
2019-04-14T11:11:19.007Z,6.80
2019-04-14T11:13:46.254Z,6.80
2019-04-14T11:16:13.464Z,6.80
2019-04-14T11:18:40.712Z,6.70
2019-04-14T11:21:07.834Z,6.80
2019-04-14T11:23:34.884Z,6.90
2019-04-14T11:26:02.078Z,7.00
2019-04-14T11:28:29.217Z,7.10
2019-04-14T11:30:56.413Z,7.30
2019-04-14T11:33:29.852Z,7.50
2019-04-14T11:36:34.667Z,7.60
2019-04-14T11:39:07.724Z,7.70
2019-04-14T11:41:34.749Z,7.70
2019-04-14T11:44:01.931Z,7.90
2019-04-14T11:46:29.476Z,8.00
2019-04-14T11:48:56.608Z,8.10
2019-04-14T11:51:23.819Z,8.00
2019-04-14T11:53:50.876Z,7.90
2019-04-14T11:56:18.109Z,7.90
2019-04-14T11:58:45.271Z,7.90
2019-04-14T12:01:31.462Z,7.90
2019-04-14T12:04:18.263Z,7.90
2019-04-14T12:07:05.122Z,7.90
2019-04-14T12:09:38.360Z,8.00
2019-04-14T12:12:07.564Z,8.10
2019-04-14T12:14:34.809Z,8.30
2019-04-14T12:17:01.904Z,8.40
2019-04-14T12:19:28.957Z,8.50
2019-04-14T12:22:07.608Z,8.50
2019-04-14T12:24:25.475Z,8.50
2019-04-14T12:26:52.668Z,8.50
2019-04-14T12:29:19.765Z,8.50
2019-04-14T12:31:48.609Z,8.50
2019-04-14T12:34:18.295Z,8.70
2019-04-14T12:36:45.053Z,9.00
2019-04-14T12:39:19.903Z,9.30
2019-04-14T12:41:51.824Z,9.70
2019-04-14T12:44:36.936Z,9.90
2019-04-14T12:47:10.925Z,10.00
2019-04-14T12:49:41.066Z,9.90
2019-04-14T12:52:21.510Z,9.70
2019-04-14T12:54:48.048Z,9.70
2019-04-14T12:57:17.582Z,9.90
2019-04-14T12:59:45.923Z,10.20
2019-04-14T13:02:19.538Z,10.70
2019-04-14T13:04:46.773Z,10.90
2019-04-14T13:07:14.095Z,10.80
2019-04-14T13:09:42.020Z,10.80
2019-04-14T13:12:10.499Z,10.70
2019-04-14T13:14:37.719Z,10.50
2019-04-14T13:17:05.237Z,10.70
2019-04-14T13:19:32.363Z,10.90
2019-04-14T13:21:59.420Z,11.10
2019-04-14T13:24:26.663Z,11.20
2019-04-14T13:26:53.771Z,11.20
2019-04-14T13:29:21.046Z,11.20
2019-04-14T13:31:48.166Z,11.30
2019-04-14T13:34:15.416Z,11.20
2019-04-14T13:36:42.726Z,11.20
2019-04-14T13:39:12.579Z,11.10
2019-04-14T13:41:39.027Z,11.20
2019-04-14T13:44:07.331Z,11.40
2019-04-14T13:46:34.567Z,11.40
2019-04-14T13:49:01.844Z,11.50
2019-04-14T13:51:29.116Z,11.60
2019-04-14T13:53:56.256Z,11.60
2019-04-14T13:56:23.483Z,11.60
2019-04-14T13:58:50.603Z,11.60
2019-04-14T14:01:17.855Z,11.60
2019-04-14T14:03:46.076Z,11.60
2019-04-14T14:06:13.183Z,11.70
2019-04-14T14:08:40.475Z,11.70
2019-04-14T14:11:22.644Z,11.80
2019-04-14T14:13:58.392Z,11.80
2019-04-14T14:16:54.080Z,11.70
2019-04-14T14:19:40.852Z,11.50
2019-04-14T14:22:26.397Z,11.50
2019-04-14T14:25:05.031Z,11.40
2019-04-14T14:27:32.180Z,11.50
2019-04-14T14:29:59.200Z,11.80
2019-04-14T14:32:38.257Z,11.80
2019-04-14T14:35:05.686Z,11.80
2019-04-14T14:37:32.778Z,11.80
2019-04-14T14:40:00.005Z,11.70
2019-04-14T14:42:27.267Z,11.60
2019-04-14T14:45:04.853Z,11.60
2019-04-14T14:47:32.824Z,11.60
2019-04-14T14:50:06.468Z,11.50
2019-04-14T14:52:34.170Z,11.60
2019-04-14T14:55:01.357Z,11.70
2019-04-14T14:57:29.641Z,11.90
2019-04-14T14:59:56.850Z,12.10
2019-04-14T15:02:24.087Z,12.40
2019-04-14T15:04:51.183Z,12.60
2019-04-14T15:07:18.295Z,12.60
2019-04-14T15:09:45.399Z,12.60
2019-04-14T15:12:12.921Z,12.60
2019-04-14T15:14:40.040Z,12.30
2019-04-14T15:17:08.485Z,12.40
2019-04-14T15:19:35.875Z,12.10
2019-04-14T15:22:03.355Z,12.10
2019-04-14T15:24:30.483Z,12.00
2019-04-14T15:26:58.868Z,12.00
2019-04-14T15:29:27.110Z,12.00
2019-04-14T15:31:54.246Z,12.00
2019-04-14T15:34:21.631Z,12.00
2019-04-14T15:36:49.040Z,12.10
2019-04-14T15:39:16.660Z,12.10
2019-04-14T15:41:43.801Z,12.10
2019-04-14T15:44:11.300Z,12.10
2019-04-14T15:46:38.441Z,12.00
2019-04-14T15:49:05.454Z,12.00
2019-04-14T15:51:32.767Z,12.00
2019-04-14T15:54:00.907Z,12.00
2019-04-14T15:56:47.724Z,11.90
2019-04-14T15:59:40.375Z,12.00
2019-04-14T16:02:26.488Z,11.80
2019-04-14T16:05:28.331Z,11.80
2019-04-14T16:08:00.390Z,11.80
2019-04-14T16:10:41.612Z,11.90
2019-04-14T16:13:11.608Z,11.90
2019-04-14T16:15:51.611Z,11.80
2019-04-14T16:18:44.158Z,11.80
2019-04-14T16:21:11.369Z,11.80
2019-04-14T16:23:49.946Z,11.80
2019-04-14T16:26:19.043Z,11.80
2019-04-14T16:28:51.097Z,11.80
2019-04-14T16:31:36.412Z,11.70
2019-04-14T16:34:24.831Z,11.60
2019-04-14T16:36:52.196Z,11.60
2019-04-14T16:39:19.450Z,11.50
2019-04-14T16:41:48.881Z,11.50
2019-04-14T16:44:16.184Z,11.50
2019-04-14T16:46:43.413Z,11.50
2019-04-14T16:49:10.739Z,11.40
2019-04-14T16:51:45.916Z,11.30
2019-04-14T16:54:21.479Z,11.30
2019-04-14T16:57:19.818Z,11.20
2019-04-14T16:59:49.391Z,11.20
2019-04-14T17:02:16.536Z,11.10
2019-04-14T17:04:43.853Z,11.00
2019-04-14T17:07:16.345Z,11.00
2019-04-14T17:09:43.631Z,11.00
2019-04-14T17:12:11.096Z,10.90
2019-04-14T17:14:57.853Z,10.90
2019-04-14T17:17:42.101Z,10.90
2019-04-14T17:20:19.471Z,10.80
2019-04-14T17:22:58.933Z,10.80
2019-04-14T17:25:39.778Z,10.70
2019-04-14T17:28:25.649Z,10.70
2019-04-14T17:30:57.552Z,10.70
2019-04-14T17:33:31.588Z,10.70
2019-04-14T17:36:24.079Z,10.60
2019-04-14T17:39:07.923Z,10.60
2019-04-14T17:41:56.895Z,10.50
2019-04-14T17:44:32.131Z,10.40
2019-04-14T17:47:10.109Z,10.30
2019-04-14T17:49:55.497Z,10.30
2019-04-14T17:52:30.645Z,10.20
2019-04-14T17:55:22.721Z,10.10
2019-04-14T17:58:03.491Z,10.10
2019-04-14T18:00:54.396Z,10.00
2019-04-14T18:03:37.301Z,9.90
2019-04-14T18:06:24.304Z,9.90
2019-04-14T18:09:19.908Z,9.80
2019-04-14T18:12:02.416Z,9.80
2019-04-14T18:15:07.262Z,9.70
2019-04-14T18:17:42.482Z,9.60
2019-04-14T18:20:16.952Z,9.50
2019-04-14T18:22:44.144Z,9.50
2019-04-14T18:25:11.568Z,9.50
2019-04-14T18:28:04.412Z,9.40
2019-04-14T18:30:35.904Z,9.30
2019-04-14T18:33:09.023Z,9.30
2019-04-14T18:35:43.633Z,9.20
2019-04-14T18:38:21.279Z,9.20
2019-04-14T18:40:57.683Z,9.10
2019-04-14T18:43:43.252Z,9.00
2019-04-14T18:46:14.746Z,8.90
2019-04-14T18:49:00.612Z,8.90
2019-04-14T18:51:34.141Z,8.80
2019-04-14T18:54:35.094Z,8.70
2019-04-14T18:57:16.288Z,8.70
2019-04-14T18:59:47.368Z,8.60
2019-04-14T19:02:16.849Z,8.60
2019-04-14T19:04:44.207Z,8.50
2019-04-14T19:07:11.542Z,8.50
2019-04-14T19:09:38.531Z,8.50
2019-04-14T19:12:24.010Z,8.40
2019-04-14T19:14:55.914Z,8.40
2019-04-14T19:17:30.648Z,8.30
2019-04-14T19:20:02.055Z,8.20
2019-04-14T19:22:27.137Z,8.20
2019-04-14T19:25:06.985Z,8.20
2019-04-14T19:27:23.516Z,8.10
2019-04-14T19:29:50.828Z,8.10
2019-04-14T19:32:18.218Z,7.90
2019-04-14T19:34:45.567Z,7.90
2019-04-14T19:37:12.885Z,7.80
2019-04-14T19:39:40.455Z,7.80
2019-04-14T19:42:07.780Z,7.70
2019-04-14T19:44:37.172Z,7.70
2019-04-14T19:47:04.288Z,7.60
2019-04-14T19:49:31.849Z,7.60
2019-04-14T19:51:59.193Z,7.50
2019-04-14T19:54:26.293Z,7.50
2019-04-14T19:56:53.544Z,7.40
2019-04-14T19:59:20.676Z,7.40
2019-04-14T20:01:47.825Z,7.40
2019-04-14T20:04:14.968Z,7.30
2019-04-14T20:06:42.265Z,7.30
2019-04-14T20:09:09.457Z,7.20
2019-04-14T20:11:36.624Z,7.20
2019-04-14T20:14:04.036Z,7.20
2019-04-14T20:16:41.565Z,7.10
2019-04-14T20:19:27.327Z,7.10
2019-04-14T20:22:08.615Z,7.10
2019-04-14T20:24:44.655Z,7.00
2019-04-14T20:27:30.472Z,7.00
2019-04-14T20:29:58.815Z,6.90
2019-04-14T20:32:31.668Z,6.80
2019-04-14T20:35:00.119Z,6.70
2019-04-14T20:37:27.251Z,6.70
2019-04-14T20:39:54.498Z,6.60
2019-04-14T20:42:21.632Z,6.50
2019-04-14T20:44:48.768Z,6.40
2019-04-14T20:47:16.012Z,6.30
2019-04-14T20:49:44.424Z,6.20
2019-04-14T20:52:11.562Z,6.10
2019-04-14T20:54:38.764Z,6.10
2019-04-14T20:57:05.931Z,6.00
2019-04-14T20:59:32.960Z,5.90
2019-04-14T21:02:18.526Z,5.90
2019-04-14T21:05:15.619Z,5.90
2019-04-14T21:08:02.563Z,5.80
2019-04-14T21:10:38.698Z,5.70
2019-04-14T21:13:26.726Z,5.70
2019-04-14T21:16:12.197Z,5.70
2019-04-14T21:18:35.136Z,5.70
2019-04-14T21:21:12.665Z,5.70
2019-04-14T21:23:58.277Z,5.70
2019-04-14T21:26:50.715Z,5.70
2019-04-14T21:29:40.180Z,5.60
2019-04-14T21:32:25.464Z,5.60
2019-04-14T21:34:59.779Z,5.60
2019-04-14T21:37:49.430Z,5.60
2019-04-14T21:40:39.197Z,5.60
2019-04-14T21:43:06.279Z,5.60
2019-04-14T21:45:33.479Z,5.50
2019-04-14T21:48:00.706Z,5.50
2019-04-14T21:50:27.818Z,5.50
2019-04-14T21:52:54.959Z,5.50
2019-04-14T21:55:22.145Z,5.50
2019-04-14T21:58:11.968Z,5.40
2019-04-14T22:01:35.587Z,5.40
2019-04-14T22:04:12.370Z,5.30
2019-04-14T22:06:40.699Z,5.30
2019-04-14T22:09:13.960Z,5.20
2019-04-14T22:11:40.961Z,5.10
2019-04-14T22:14:08.162Z,5.00
2019-04-14T22:16:35.699Z,5.00
2019-04-14T22:19:02.800Z,4.90
2019-04-14T22:21:29.800Z,4.80
2019-04-14T22:24:01.654Z,4.60
2019-04-14T22:26:26.649Z,4.60
2019-04-14T22:28:53.850Z,4.50
2019-04-14T22:31:20.970Z,4.30
2019-04-14T22:33:48.216Z,4.30
2019-04-14T22:36:15.318Z,4.20
2019-04-14T22:38:42.343Z,4.10
2019-04-14T22:41:09.369Z,4.10
2019-04-14T22:43:36.591Z,4.00
2019-04-14T22:46:03.786Z,3.90
2019-04-14T22:48:31.144Z,3.80
2019-04-14T22:50:58.367Z,3.80
2019-04-14T22:53:25.634Z,3.70
2019-04-14T22:55:52.796Z,3.60
2019-04-14T22:58:20.013Z,3.60
2019-04-14T23:00:51.327Z,3.50
2019-04-14T23:03:38.236Z,3.50
2019-04-14T23:06:19.170Z,3.40
2019-04-14T23:09:06.084Z,3.40
2019-04-14T23:11:51.428Z,3.30
2019-04-14T23:14:26.941Z,3.30
2019-04-14T23:17:20.380Z,3.30
2019-04-14T23:19:53.036Z,3.20
2019-04-14T23:22:35.620Z,3.20
2019-04-14T23:25:02.996Z,3.20
2019-04-14T23:27:30.122Z,3.20
2019-04-14T23:29:58.355Z,3.10
2019-04-14T23:32:25.585Z,3.10
2019-04-14T23:34:52.594Z,3.10
2019-04-14T23:37:19.825Z,3.20
2019-04-14T23:39:46.943Z,3.00
2019-04-14T23:42:14.136Z,3.00
2019-04-14T23:44:41.458Z,3.00
2019-04-14T23:47:08.967Z,3.00
2019-04-14T23:49:36.079Z,3.00
2019-04-14T23:52:03.306Z,2.90
2019-04-14T23:54:30.443Z,2.90
2019-04-14T23:57:05.252Z,2.90
2019-04-14T23:59:26.608Z,2.90
